TAF for:KORD (Chicago/O'Hare Intl, IL, US) issued at 0531 UTC 06 Dec 2022
Text:KORD 060531Z 0606/0712 36005KT P6SM SCT025 OVC035
Forecast period:0600 to 1200 UTC 06 December 2022
Forecast type:FROM: standard forecast or significant change
Winds:from the N (360 degrees) at 6 MPH (5 knots; 2.6 m/s)
Visibility:6 or more sm (10+ km)
Ceiling:3500 feet AGL
Clouds:scattered clouds at 2500 feet AGL, overcast cloud deck at 3500 feet AGL
Text:TEMPO 0607/0611 -RA BKN025
Forecast period:0700 to 1100 UTC 06 December 2022
Forecast type:TEMPORARY: The following changes expected for less than half the time period
Ceiling:2500 feet AGL
Clouds:broken clouds at 2500 feet AGL
Weather:-RA (light rain)
Text:FM061200 04006KT P6SM SCT015 BKN025
Forecast period:1200 UTC 06 December 2022 to 1200 UTC 07 December 2022
Forecast type:FROM: standard forecast or significant change
Winds:from the NE (40 degrees) at 7 MPH (6 knots; 3.1 m/s)
Visibility:6 or more sm (10+ km)
Ceiling:2500 feet AGL
Clouds:scattered clouds at 1500 feet AGL, broken clouds at 2500 feet AGL
Text:PROB30 0622/0702 -RA BKN015
Forecast period:2200 UTC 06 December 2022 to 0200 UTC 07 December 2022
Forecast type:PROBABLE: 30 percent likelihood of the following during this time
Ceiling:1500 feet AGL
Clouds:broken clouds at 1500 feet AGL
Weather:-RA (light rain)